sensor_id;sensor_type;location;lat;lon;timestamp;temperature;humidity
7606;DHT22;3844;53.360;9.738;2022-11-06T00:01:12;7.80;95.70
7606;DHT22;3844;53.360;9.738;2022-11-06T00:03:12;7.80;95.70
7606;DHT22;3844;53.360;9.738;2022-11-06T00:05:13;7.80;95.70
7606;DHT22;3844;53.360;9.738;2022-11-06T00:07:32;7.90;95.70
7606;DHT22;3844;53.360;9.738;2022-11-06T00:09:34;7.90;95.70
7606;DHT22;3844;53.360;9.738;2022-11-06T00:11:34;7.90;95.70
7606;DHT22;3844;53.360;9.738;2022-11-06T00:13:35;7.90;95.70
7606;DHT22;3844;53.360;9.738;2022-11-06T00:15:36;7.90;95.70
7606;DHT22;3844;53.360;9.738;2022-11-06T00:17:37;8.00;95.70
7606;DHT22;3844;53.360;9.738;2022-11-06T00:19:37;8.00;95.70
7606;DHT22;3844;53.360;9.738;2022-11-06T00:21:38;8.00;95.70
7606;DHT22;3844;53.360;9.738;2022-11-06T00:23:39;8.00;95.70
7606;DHT22;3844;53.360;9.738;2022-11-06T00:25:41;8.00;95.70
7606;DHT22;3844;53.360;9.738;2022-11-06T00:27:42;8.00;95.70
7606;DHT22;3844;53.360;9.738;2022-11-06T00:29:43;8.00;95.70
7606;DHT22;3844;53.360;9.738;2022-11-06T00:31:44;8.00;95.70
7606;DHT22;3844;53.360;9.738;2022-11-06T00:33:45;8.00;95.70
7606;DHT22;3844;53.360;9.738;2022-11-06T00:35:47;8.00;95.70
7606;DHT22;3844;53.360;9.738;2022-11-06T00:37:47;8.00;95.70
7606;DHT22;3844;53.360;9.738;2022-11-06T00:39:48;8.00;95.70
7606;DHT22;3844;53.360;9.738;2022-11-06T00:41:49;8.00;95.70
7606;DHT22;3844;53.360;9.738;2022-11-06T00:43:57;8.00;95.70
7606;DHT22;3844;53.360;9.738;2022-11-06T00:46:09;8.00;95.70
7606;DHT22;3844;53.360;9.738;2022-11-06T00:48:10;8.00;95.70
7606;DHT22;3844;53.360;9.738;2022-11-06T00:50:11;8.00;95.70
7606;DHT22;3844;53.360;9.738;2022-11-06T00:52:11;8.00;95.70
7606;DHT22;3844;53.360;9.738;2022-11-06T00:54:12;8.00;95.70
7606;DHT22;3844;53.360;9.738;2022-11-06T00:56:18;8.00;95.70
7606;DHT22;3844;53.360;9.738;2022-11-06T00:58:18;7.90;95.70
7606;DHT22;3844;53.360;9.738;2022-11-06T01:00:19;7.90;95.70
7606;DHT22;3844;53.360;9.738;2022-11-06T01:02:21;7.80;95.70
7606;DHT22;3844;53.360;9.738;2022-11-06T01:04:23;7.80;95.70
7606;DHT22;3844;53.360;9.738;2022-11-06T01:06:27;7.80;95.70
7606;DHT22;3844;53.360;9.738;2022-11-06T01:08:28;7.80;95.70
7606;DHT22;3844;53.360;9.738;2022-11-06T01:10:58;7.90;95.70
7606;DHT22;3844;53.360;9.738;2022-11-06T01:13:10;7.90;95.70
7606;DHT22;3844;53.360;9.738;2022-11-06T01:15:14;7.90;95.70
7606;DHT22;3844;53.360;9.738;2022-11-06T01:17:18;7.90;95.70
7606;DHT22;3844;53.360;9.738;2022-11-06T01:19:25;7.90;95.70
7606;DHT22;3844;53.360;9.738;2022-11-06T01:21:40;7.90;95.70
7606;DHT22;3844;53.360;9.738;2022-11-06T01:28:37;7.90;95.70
7606;DHT22;3844;53.360;9.738;2022-11-06T01:30:50;8.00;95.70
7606;DHT22;3844;53.360;9.738;2022-11-06T01:39:03;8.10;95.70
7606;DHT22;3844;53.360;9.738;2022-11-06T01:46:58;8.10;95.70
7606;DHT22;3844;53.360;9.738;2022-11-06T01:49:08;8.10;95.70
7606;DHT22;3844;53.360;9.738;2022-11-06T01:51:10;8.20;95.70
7606;DHT22;3844;53.360;9.738;2022-11-06T01:53:14;8.20;95.70
7606;DHT22;3844;53.360;9.738;2022-11-06T01:55:23;8.20;95.70
7606;DHT22;3844;53.360;9.738;2022-11-06T01:57:25;8.20;95.70
7606;DHT22;3844;53.360;9.738;2022-11-06T01:59:29;8.20;95.70
7606;DHT22;3844;53.360;9.738;2022-11-06T02:01:31;8.20;95.70
7606;DHT22;3844;53.360;9.738;2022-11-06T02:03:32;8.20;95.70
7606;DHT22;3844;53.360;9.738;2022-11-06T02:05:33;8.20;95.70
7606;DHT22;3844;53.360;9.738;2022-11-06T02:07:39;8.20;95.70
7606;DHT22;3844;53.360;9.738;2022-11-06T02:09:40;8.20;95.70
7606;DHT22;3844;53.360;9.738;2022-11-06T02:16:46;8.20;95.70
7606;DHT22;3844;53.360;9.738;2022-11-06T02:24:17;8.20;95.70
7606;DHT22;3844;53.360;9.738;2022-11-06T02:32:50;8.30;95.70
7606;DHT22;3844;53.360;9.738;2022-11-06T02:35:45;8.30;95.70
7606;DHT22;3844;53.360;9.738;2022-11-06T02:37:40;8.30;95.70
7606;DHT22;3844;53.360;9.738;2022-11-06T02:40:27;8.30;95.70
7606;DHT22;3844;53.360;9.738;2022-11-06T02:42:40;8.30;95.70
7606;DHT22;3844;53.360;9.738;2022-11-06T02:45:14;8.30;95.70
7606;DHT22;3844;53.360;9.738;2022-11-06T02:47:21;8.30;95.70
7606;DHT22;3844;53.360;9.738;2022-11-06T02:49:34;8.30;95.70
7606;DHT22;3844;53.360;9.738;2022-11-06T02:51:47;8.30;95.70
7606;DHT22;3844;53.360;9.738;2022-11-06T02:53:58;8.30;95.70
7606;DHT22;3844;53.360;9.738;2022-11-06T02:56:27;8.40;95.70
7606;DHT22;3844;53.360;9.738;2022-11-06T02:58:38;8.40;95.70
7606;DHT22;3844;53.360;9.738;2022-11-06T03:00:44;8.40;95.70
7606;DHT22;3844;53.360;9.738;2022-11-06T03:03:01;8.40;95.70
7606;DHT22;3844;53.360;9.738;2022-11-06T03:09:22;8.40;95.70
7606;DHT22;3844;53.360;9.738;2022-11-06T03:11:28;8.30;95.70
7606;DHT22;3844;53.360;9.738;2022-11-06T03:13:51;8.40;95.70
7606;DHT22;3844;53.360;9.738;2022-11-06T03:15:57;8.30;95.70
7606;DHT22;3844;53.360;9.738;2022-11-06T03:18:24;8.30;95.70
7606;DHT22;3844;53.360;9.738;2022-11-06T03:24:42;8.20;95.70
7606;DHT22;3844;53.360;9.738;2022-11-06T03:26:50;8.20;95.70
7606;DHT22;3844;53.360;9.738;2022-11-06T03:31:18;8.20;95.70
7606;DHT22;3844;53.360;9.738;2022-11-06T03:35:53;8.20;95.70
7606;DHT22;3844;53.360;9.738;2022-11-06T03:40:08;8.30;95.70
7606;DHT22;3844;53.360;9.738;2022-11-06T03:42:18;8.30;95.70
7606;DHT22;3844;53.360;9.738;2022-11-06T03:44:27;8.40;95.70
7606;DHT22;3844;53.360;9.738;2022-11-06T03:46:29;8.40;95.70
7606;DHT22;3844;53.360;9.738;2022-11-06T03:48:35;8.40;95.70
7606;DHT22;3844;53.360;9.738;2022-11-06T03:50:47;8.40;95.70
7606;DHT22;3844;53.360;9.738;2022-11-06T03:53:03;8.40;95.70
7606;DHT22;3844;53.360;9.738;2022-11-06T03:57:36;8.40;95.70
7606;DHT22;3844;53.360;9.738;2022-11-06T03:59:47;8.40;95.70
7606;DHT22;3844;53.360;9.738;2022-11-06T04:01:52;8.40;95.70
7606;DHT22;3844;53.360;9.738;2022-11-06T04:03:58;8.40;95.70
7606;DHT22;3844;53.360;9.738;2022-11-06T04:06:10;8.30;95.70
7606;DHT22;3844;53.360;9.738;2022-11-06T04:08:15;8.40;95.70
7606;DHT22;3844;53.360;9.738;2022-11-06T04:10:38;8.30;95.70
7606;DHT22;3844;53.360;9.738;2022-11-06T04:12:58;8.30;95.70
7606;DHT22;3844;53.360;9.738;2022-11-06T04:15:18;8.30;95.70
7606;DHT22;3844;53.360;9.738;2022-11-06T04:17:21;8.30;95.70
7606;DHT22;3844;53.360;9.738;2022-11-06T04:19:23;8.30;95.70
7606;DHT22;3844;53.360;9.738;2022-11-06T04:23:58;8.30;95.70
7606;DHT22;3844;53.360;9.738;2022-11-06T04:26:30;8.30;95.70
7606;DHT22;3844;53.360;9.738;2022-11-06T04:33:53;8.30;95.70
7606;DHT22;3844;53.360;9.738;2022-11-06T04:43:34;8.30;95.70
7606;DHT22;3844;53.360;9.738;2022-11-06T04:45:39;8.30;95.70
7606;DHT22;3844;53.360;9.738;2022-11-06T04:47:42;8.30;95.70
7606;DHT22;3844;53.360;9.738;2022-11-06T04:49:45;8.30;95.70
7606;DHT22;3844;53.360;9.738;2022-11-06T04:51:48;8.20;95.70
7606;DHT22;3844;53.360;9.738;2022-11-06T04:53:50;8.20;95.70
7606;DHT22;3844;53.360;9.738;2022-11-06T04:55:59;8.10;95.70
7606;DHT22;3844;53.360;9.738;2022-11-06T04:57:59;8.10;95.70
7606;DHT22;3844;53.360;9.738;2022-11-06T05:00:00;8.00;95.70
7606;DHT22;3844;53.360;9.738;2022-11-06T05:02:01;8.00;95.70
7606;DHT22;3844;53.360;9.738;2022-11-06T05:04:02;7.90;95.70
7606;DHT22;3844;53.360;9.738;2022-11-06T05:06:03;7.90;95.70
7606;DHT22;3844;53.360;9.738;2022-11-06T05:08:03;7.90;95.70
7606;DHT22;3844;53.360;9.738;2022-11-06T05:10:04;7.90;95.70
7606;DHT22;3844;53.360;9.738;2022-11-06T05:12:05;7.90;95.70
7606;DHT22;3844;53.360;9.738;2022-11-06T05:14:06;7.90;95.70
7606;DHT22;3844;53.360;9.738;2022-11-06T05:16:07;7.80;95.70
7606;DHT22;3844;53.360;9.738;2022-11-06T05:20:09;7.70;95.70
7606;DHT22;3844;53.360;9.738;2022-11-06T05:22:09;7.70;95.70
7606;DHT22;3844;53.360;9.738;2022-11-06T05:24:29;7.60;95.70
7606;DHT22;3844;53.360;9.738;2022-11-06T05:26:29;7.60;95.70
7606;DHT22;3844;53.360;9.738;2022-11-06T05:28:30;7.50;95.70
7606;DHT22;3844;53.360;9.738;2022-11-06T05:30:32;7.50;95.70
7606;DHT22;3844;53.360;9.738;2022-11-06T05:32:32;7.50;95.70
7606;DHT22;3844;53.360;9.738;2022-11-06T05:36:34;7.50;95.70
7606;DHT22;3844;53.360;9.738;2022-11-06T05:38:35;7.40;95.70
7606;DHT22;3844;53.360;9.738;2022-11-06T05:40:36;7.40;95.70
7606;DHT22;3844;53.360;9.738;2022-11-06T05:42:40;7.40;95.70
7606;DHT22;3844;53.360;9.738;2022-11-06T05:44:41;7.40;95.70
7606;DHT22;3844;53.360;9.738;2022-11-06T05:46:42;7.50;95.70
7606;DHT22;3844;53.360;9.738;2022-11-06T05:48:42;7.50;95.70
7606;DHT22;3844;53.360;9.738;2022-11-06T05:50:43;7.60;95.70
7606;DHT22;3844;53.360;9.738;2022-11-06T05:52:44;7.60;95.70
7606;DHT22;3844;53.360;9.738;2022-11-06T05:54:44;7.70;95.70
7606;DHT22;3844;53.360;9.738;2022-11-06T05:56:45;7.70;95.70
7606;DHT22;3844;53.360;9.738;2022-11-06T06:00:49;7.70;95.70
7606;DHT22;3844;53.360;9.738;2022-11-06T06:02:50;7.70;95.70
7606;DHT22;3844;53.360;9.738;2022-11-06T06:04:51;7.70;95.70
7606;DHT22;3844;53.360;9.738;2022-11-06T06:06:52;7.70;95.70
7606;DHT22;3844;53.360;9.738;2022-11-06T06:08:53;7.60;95.70
7606;DHT22;3844;53.360;9.738;2022-11-06T06:12:54;7.50;95.70
7606;DHT22;3844;53.360;9.738;2022-11-06T06:14:55;7.50;95.70
7606;DHT22;3844;53.360;9.738;2022-11-06T06:16:56;7.40;95.70
7606;DHT22;3844;53.360;9.738;2022-11-06T06:18:57;7.40;95.70
7606;DHT22;3844;53.360;9.738;2022-11-06T06:20:57;7.40;95.70
7606;DHT22;3844;53.360;9.738;2022-11-06T06:22:58;7.40;95.70
7606;DHT22;3844;53.360;9.738;2022-11-06T06:24:59;7.40;95.70
7606;DHT22;3844;53.360;9.738;2022-11-06T06:27:00;7.40;95.70
7606;DHT22;3844;53.360;9.738;2022-11-06T06:29:01;7.40;95.70
7606;DHT22;3844;53.360;9.738;2022-11-06T06:31:04;7.40;95.70
7606;DHT22;3844;53.360;9.738;2022-11-06T06:33:05;7.40;95.70
7606;DHT22;3844;53.360;9.738;2022-11-06T06:35:06;7.30;95.70
7606;DHT22;3844;53.360;9.738;2022-11-06T06:37:07;7.30;95.70
7606;DHT22;3844;53.360;9.738;2022-11-06T06:39:08;7.30;95.70
7606;DHT22;3844;53.360;9.738;2022-11-06T06:43:10;7.30;95.70
7606;DHT22;3844;53.360;9.738;2022-11-06T06:45:10;7.30;95.70
7606;DHT22;3844;53.360;9.738;2022-11-06T06:47:11;7.30;95.70
7606;DHT22;3844;53.360;9.738;2022-11-06T06:49:12;7.30;95.70
7606;DHT22;3844;53.360;9.738;2022-11-06T06:51:12;7.40;95.70
7606;DHT22;3844;53.360;9.738;2022-11-06T06:53:13;7.40;95.70
7606;DHT22;3844;53.360;9.738;2022-11-06T06:55:14;7.40;95.70
7606;DHT22;3844;53.360;9.738;2022-11-06T06:57:15;7.50;95.70
7606;DHT22;3844;53.360;9.738;2022-11-06T06:59:16;7.50;95.70
7606;DHT22;3844;53.360;9.738;2022-11-06T07:01:16;7.60;95.70
7606;DHT22;3844;53.360;9.738;2022-11-06T07:03:17;7.60;95.70
7606;DHT22;3844;53.360;9.738;2022-11-06T07:05:18;7.60;95.70
7606;DHT22;3844;53.360;9.738;2022-11-06T07:07:19;7.70;95.70
7606;DHT22;3844;53.360;9.738;2022-11-06T07:09:20;7.70;95.70
7606;DHT22;3844;53.360;9.738;2022-11-06T07:11:21;7.70;95.70
7606;DHT22;3844;53.360;9.738;2022-11-06T07:13:22;7.80;95.70
7606;DHT22;3844;53.360;9.738;2022-11-06T07:17:23;7.90;95.70
7606;DHT22;3844;53.360;9.738;2022-11-06T07:19:24;7.90;95.70
7606;DHT22;3844;53.360;9.738;2022-11-06T07:21:25;8.10;95.70
7606;DHT22;3844;53.360;9.738;2022-11-06T07:23:25;8.10;95.70
7606;DHT22;3844;53.360;9.738;2022-11-06T07:25:26;8.20;95.70
7606;DHT22;3844;53.360;9.738;2022-11-06T07:27:27;8.30;95.70
7606;DHT22;3844;53.360;9.738;2022-11-06T07:29:28;8.40;95.70
7606;DHT22;3844;53.360;9.738;2022-11-06T07:31:30;8.40;95.70
7606;DHT22;3844;53.360;9.738;2022-11-06T07:33:31;8.50;95.70
7606;DHT22;3844;53.360;9.738;2022-11-06T07:35:32;8.60;95.70
7606;DHT22;3844;53.360;9.738;2022-11-06T07:37:35;8.70;95.70
7606;DHT22;3844;53.360;9.738;2022-11-06T07:39:36;8.70;95.70
7606;DHT22;3844;53.360;9.738;2022-11-06T07:41:37;8.80;95.70
7606;DHT22;3844;53.360;9.738;2022-11-06T07:43:38;8.90;95.70
7606;DHT22;3844;53.360;9.738;2022-11-06T07:45:39;8.90;95.70
7606;DHT22;3844;53.360;9.738;2022-11-06T07:47:39;8.90;95.70
7606;DHT22;3844;53.360;9.738;2022-11-06T07:49:40;9.00;95.70
7606;DHT22;3844;53.360;9.738;2022-11-06T07:51:44;9.00;95.70
7606;DHT22;3844;53.360;9.738;2022-11-06T07:53:44;9.10;95.70
7606;DHT22;3844;53.360;9.738;2022-11-06T07:55:52;9.20;95.70
7606;DHT22;3844;53.360;9.738;2022-11-06T07:57:53;9.20;95.70
7606;DHT22;3844;53.360;9.738;2022-11-06T07:59:54;9.20;95.50
7606;DHT22;3844;53.360;9.738;2022-11-06T08:01:54;9.30;95.40
7606;DHT22;3844;53.360;9.738;2022-11-06T08:03:55;9.30;95.30
7606;DHT22;3844;53.360;9.738;2022-11-06T08:06:01;9.40;94.40
7606;DHT22;3844;53.360;9.738;2022-11-06T08:08:02;9.40;94.00
7606;DHT22;3844;53.360;9.738;2022-11-06T08:10:03;9.50;94.40
7606;DHT22;3844;53.360;9.738;2022-11-06T08:12:04;9.60;94.00
7606;DHT22;3844;53.360;9.738;2022-11-06T08:16:08;9.80;93.40
7606;DHT22;3844;53.360;9.738;2022-11-06T08:18:10;9.90;92.10
7606;DHT22;3844;53.360;9.738;2022-11-06T08:20:11;10.00;92.40
7606;DHT22;3844;53.360;9.738;2022-11-06T08:22:11;10.10;92.70
7606;DHT22;3844;53.360;9.738;2022-11-06T08:24:12;10.20;91.10
7606;DHT22;3844;53.360;9.738;2022-11-06T08:26:13;10.20;91.20
7606;DHT22;3844;53.360;9.738;2022-11-06T08:28:14;10.20;91.00
7606;DHT22;3844;53.360;9.738;2022-11-06T08:30:15;10.20;89.90
7606;DHT22;3844;53.360;9.738;2022-11-06T08:32:15;10.30;89.70
7606;DHT22;3844;53.360;9.738;2022-11-06T08:34:16;10.30;90.20
7606;DHT22;3844;53.360;9.738;2022-11-06T08:36:17;10.50;90.80
7606;DHT22;3844;53.360;9.738;2022-11-06T08:38:17;10.60;89.80
7606;DHT22;3844;53.360;9.738;2022-11-06T08:42:20;10.70;87.50
7606;DHT22;3844;53.360;9.738;2022-11-06T08:44:22;10.60;88.60
7606;DHT22;3844;53.360;9.738;2022-11-06T08:48:24;10.60;89.40
7606;DHT22;3844;53.360;9.738;2022-11-06T08:50:25;10.70;88.20
7606;DHT22;3844;53.360;9.738;2022-11-06T08:52:26;10.70;88.00
7606;DHT22;3844;53.360;9.738;2022-11-06T08:54:26;10.80;88.70
7606;DHT22;3844;53.360;9.738;2022-11-06T08:56:27;10.90;88.30
7606;DHT22;3844;53.360;9.738;2022-11-06T08:58:28;11.00;88.60
7606;DHT22;3844;53.360;9.738;2022-11-06T09:00:29;11.00;87.70
7606;DHT22;3844;53.360;9.738;2022-11-06T09:02:29;10.90;86.90
7606;DHT22;3844;53.360;9.738;2022-11-06T09:04:31;10.90;87.20
7606;DHT22;3844;53.360;9.738;2022-11-06T09:06:31;10.80;86.50
7606;DHT22;3844;53.360;9.738;2022-11-06T09:10:34;10.80;87.90
7606;DHT22;3844;53.360;9.738;2022-11-06T09:12:35;10.90;88.10
7606;DHT22;3844;53.360;9.738;2022-11-06T09:14:36;10.90;88.40
7606;DHT22;3844;53.360;9.738;2022-11-06T09:16:38;10.90;88.30
7606;DHT22;3844;53.360;9.738;2022-11-06T09:18:38;10.90;87.90
7606;DHT22;3844;53.360;9.738;2022-11-06T09:20:39;10.90;87.40
7606;DHT22;3844;53.360;9.738;2022-11-06T09:22:40;10.90;88.10
7606;DHT22;3844;53.360;9.738;2022-11-06T09:24:41;11.00;87.80
7606;DHT22;3844;53.360;9.738;2022-11-06T09:26:41;11.00;87.90
7606;DHT22;3844;53.360;9.738;2022-11-06T09:30:43;11.10;88.60
7606;DHT22;3844;53.360;9.738;2022-11-06T09:32:46;11.20;88.10
7606;DHT22;3844;53.360;9.738;2022-11-06T09:34:47;11.30;87.50
7606;DHT22;3844;53.360;9.738;2022-11-06T09:36:47;11.50;86.90
7606;DHT22;3844;53.360;9.738;2022-11-06T09:38:48;11.50;86.70
7606;DHT22;3844;53.360;9.738;2022-11-06T09:40:52;11.60;86.40
7606;DHT22;3844;53.360;9.738;2022-11-06T09:45:23;11.90;86.60
7606;DHT22;3844;53.360;9.738;2022-11-06T09:47:31;12.00;85.00
7606;DHT22;3844;53.360;9.738;2022-11-06T09:49:39;12.00;85.10
7606;DHT22;3844;53.360;9.738;2022-11-06T09:56:16;12.10;84.60
7606;DHT22;3844;53.360;9.738;2022-11-06T09:58:25;12.20;85.00
7606;DHT22;3844;53.360;9.738;2022-11-06T10:00:27;12.30;84.20
7606;DHT22;3844;53.360;9.738;2022-11-06T10:04:53;12.50;84.50
7606;DHT22;3844;53.360;9.738;2022-11-06T10:06:56;12.60;84.00
7606;DHT22;3844;53.360;9.738;2022-11-06T10:09:02;12.60;82.70
7606;DHT22;3844;53.360;9.738;2022-11-06T10:20:35;12.60;82.90
7606;DHT22;3844;53.360;9.738;2022-11-06T10:22:42;12.60;84.00
7606;DHT22;3844;53.360;9.738;2022-11-06T10:25:00;12.70;83.50
7606;DHT22;3844;53.360;9.738;2022-11-06T10:27:16;12.90;83.70
7606;DHT22;3844;53.360;9.738;2022-11-06T10:33:51;13.30;82.10
7606;DHT22;3844;53.360;9.738;2022-11-06T10:36:09;13.50;82.50
7606;DHT22;3844;53.360;9.738;2022-11-06T10:38:14;13.70;81.70
7606;DHT22;3844;53.360;9.738;2022-11-06T10:40:18;13.80;80.60
7606;DHT22;3844;53.360;9.738;2022-11-06T10:42:25;14.00;80.80
7606;DHT22;3844;53.360;9.738;2022-11-06T10:44:37;14.10;80.00
7606;DHT22;3844;53.360;9.738;2022-11-06T10:46:42;14.30;79.60
7606;DHT22;3844;53.360;9.738;2022-11-06T10:48:49;14.50;78.00
7606;DHT22;3844;53.360;9.738;2022-11-06T10:51:19;14.50;77.80
7606;DHT22;3844;53.360;9.738;2022-11-06T10:57:55;14.70;76.80
7606;DHT22;3844;53.360;9.738;2022-11-06T10:59:58;14.50;77.00
7606;DHT22;3844;53.360;9.738;2022-11-06T11:01:59;14.40;76.60
7606;DHT22;3844;53.360;9.738;2022-11-06T11:04:00;14.30;77.30
7606;DHT22;3844;53.360;9.738;2022-11-06T11:06:02;14.40;78.70
7606;DHT22;3844;53.360;9.738;2022-11-06T11:08:04;14.40;77.40
7606;DHT22;3844;53.360;9.738;2022-11-06T11:12:29;14.50;78.00
7606;DHT22;3844;53.360;9.738;2022-11-06T11:14:30;14.40;77.30
7606;DHT22;3844;53.360;9.738;2022-11-06T11:16:34;14.10;77.40
7606;DHT22;3844;53.360;9.738;2022-11-06T11:18:37;13.90;78.50
7606;DHT22;3844;53.360;9.738;2022-11-06T11:20:46;13.70;79.80
7606;DHT22;3844;53.360;9.738;2022-11-06T11:25:24;13.30;80.30
7606;DHT22;3844;53.360;9.738;2022-11-06T11:27:25;13.20;80.60
7606;DHT22;3844;53.360;9.738;2022-11-06T11:29:31;13.20;81.50
7606;DHT22;3844;53.360;9.738;2022-11-06T11:31:33;13.30;81.10
7606;DHT22;3844;53.360;9.738;2022-11-06T11:33:35;13.50;81.20
7606;DHT22;3844;53.360;9.738;2022-11-06T11:35:36;13.80;80.40
7606;DHT22;3844;53.360;9.738;2022-11-06T11:37:38;14.10;80.60
7606;DHT22;3844;53.360;9.738;2022-11-06T11:39:44;14.40;80.30
7606;DHT22;3844;53.360;9.738;2022-11-06T11:41:44;14.70;78.00
7606;DHT22;3844;53.360;9.738;2022-11-06T11:44:14;14.90;78.20
7606;DHT22;3844;53.360;9.738;2022-11-06T11:46:19;14.90;76.60
7606;DHT22;3844;53.360;9.738;2022-11-06T11:48:20;14.80;77.40
7606;DHT22;3844;53.360;9.738;2022-11-06T11:52:24;14.40;78.10
7606;DHT22;3844;53.360;9.738;2022-11-06T11:54:28;14.20;78.50
7606;DHT22;3844;53.360;9.738;2022-11-06T11:56:30;14.00;78.80
7606;DHT22;3844;53.360;9.738;2022-11-06T11:58:31;13.90;80.00
7606;DHT22;3844;53.360;9.738;2022-11-06T12:00:33;13.90;80.40
7606;DHT22;3844;53.360;9.738;2022-11-06T12:02:39;13.90;80.70
7606;DHT22;3844;53.360;9.738;2022-11-06T12:04:44;13.90;79.50
7606;DHT22;3844;53.360;9.738;2022-11-06T12:06:59;13.90;80.50
7606;DHT22;3844;53.360;9.738;2022-11-06T12:09:01;13.90;80.20
7606;DHT22;3844;53.360;9.738;2022-11-06T12:11:05;13.90;80.10
7606;DHT22;3844;53.360;9.738;2022-11-06T12:13:17;13.90;80.50
7606;DHT22;3844;53.360;9.738;2022-11-06T12:15:46;13.90;81.20
7606;DHT22;3844;53.360;9.738;2022-11-06T12:17:53;13.90;80.70
7606;DHT22;3844;53.360;9.738;2022-11-06T12:19:56;13.90;81.00
7606;DHT22;3844;53.360;9.738;2022-11-06T12:21:59;13.90;81.00
7606;DHT22;3844;53.360;9.738;2022-11-06T12:24:04;14.00;80.40
7606;DHT22;3844;53.360;9.738;2022-11-06T12:28:15;14.40;80.20
7606;DHT22;3844;53.360;9.738;2022-11-06T12:30:18;14.50;78.80
7606;DHT22;3844;53.360;9.738;2022-11-06T12:35:31;14.90;79.10
7606;DHT22;3844;53.360;9.738;2022-11-06T12:39:22;15.20;77.30
7606;DHT22;3844;53.360;9.738;2022-11-06T12:41:34;15.20;76.40
7606;DHT22;3844;53.360;9.738;2022-11-06T12:43:46;15.20;76.30
7606;DHT22;3844;53.360;9.738;2022-11-06T12:45:51;15.10;76.70
7606;DHT22;3844;53.360;9.738;2022-11-06T12:48:07;15.00;77.00
7606;DHT22;3844;53.360;9.738;2022-11-06T12:55:21;14.50;76.90
7606;DHT22;3844;53.360;9.738;2022-11-06T13:01:55;13.80;79.50
7606;DHT22;3844;53.360;9.738;2022-11-06T13:04:02;13.70;79.10
7606;DHT22;3844;53.360;9.738;2022-11-06T13:17:31;13.30;80.80
7606;DHT22;3844;53.360;9.738;2022-11-06T13:21:59;13.30;80.60
7606;DHT22;3844;53.360;9.738;2022-11-06T13:24:09;13.30;80.50
7606;DHT22;3844;53.360;9.738;2022-11-06T13:26:17;13.40;81.00
7606;DHT22;3844;53.360;9.738;2022-11-06T13:30:22;13.70;79.30
7606;DHT22;3844;53.360;9.738;2022-11-06T13:32:24;13.80;79.20
7606;DHT22;3844;53.360;9.738;2022-11-06T13:34:35;14.00;79.20
7606;DHT22;3844;53.360;9.738;2022-11-06T13:36:37;14.20;78.00
7606;DHT22;3844;53.360;9.738;2022-11-06T13:38:45;14.10;77.70
7606;DHT22;3844;53.360;9.738;2022-11-06T13:40:53;14.00;77.50
7606;DHT22;3844;53.360;9.738;2022-11-06T13:45:14;13.70;78.80
7606;DHT22;3844;53.360;9.738;2022-11-06T13:52:09;13.20;80.30
7606;DHT22;3844;53.360;9.738;2022-11-06T13:54:25;13.00;81.20
7606;DHT22;3844;53.360;9.738;2022-11-06T13:59:23;12.80;82.00
7606;DHT22;3844;53.360;9.738;2022-11-06T14:06:20;12.60;83.40
7606;DHT22;3844;53.360;9.738;2022-11-06T14:10:35;12.50;83.20
7606;DHT22;3844;53.360;9.738;2022-11-06T14:12:45;12.50;83.70
7606;DHT22;3844;53.360;9.738;2022-11-06T14:14:47;12.50;84.10
7606;DHT22;3844;53.360;9.738;2022-11-06T14:30:14;12.40;84.40
7606;DHT22;3844;53.360;9.738;2022-11-06T14:34:31;12.40;84.20
7606;DHT22;3844;53.360;9.738;2022-11-06T14:36:36;12.40;84.40
7606;DHT22;3844;53.360;9.738;2022-11-06T14:38:37;12.40;84.70
7606;DHT22;3844;53.360;9.738;2022-11-06T14:40:38;12.40;84.60
7606;DHT22;3844;53.360;9.738;2022-11-06T14:42:44;12.40;85.00
7606;DHT22;3844;53.360;9.738;2022-11-06T14:44:47;12.30;84.60
7606;DHT22;3844;53.360;9.738;2022-11-06T14:46:50;12.30;84.60
7606;DHT22;3844;53.360;9.738;2022-11-06T14:48:55;12.20;85.10
7606;DHT22;3844;53.360;9.738;2022-11-06T14:50:57;12.10;85.20
7606;DHT22;3844;53.360;9.738;2022-11-06T14:53:18;12.00;85.40
7606;DHT22;3844;53.360;9.738;2022-11-06T14:59:39;11.80;85.40
7606;DHT22;3844;53.360;9.738;2022-11-06T15:01:54;11.80;85.20
7606;DHT22;3844;53.360;9.738;2022-11-06T15:03:59;11.70;85.50
7606;DHT22;3844;53.360;9.738;2022-11-06T15:10:51;11.60;85.50
7606;DHT22;3844;53.360;9.738;2022-11-06T15:13:25;11.60;85.90
7606;DHT22;3844;53.360;9.738;2022-11-06T15:15:26;11.50;86.30
7606;DHT22;3844;53.360;9.738;2022-11-06T15:17:31;11.40;86.20
7606;DHT22;3844;53.360;9.738;2022-11-06T15:21:59;11.30;86.80
7606;DHT22;3844;53.360;9.738;2022-11-06T15:24:26;11.30;86.60
7606;DHT22;3844;53.360;9.738;2022-11-06T15:26:40;11.30;87.10
7606;DHT22;3844;53.360;9.738;2022-11-06T15:28:47;11.30;87.20
7606;DHT22;3844;53.360;9.738;2022-11-06T15:31:10;11.20;87.40
7606;DHT22;3844;53.360;9.738;2022-11-06T15:33:16;11.20;87.10
7606;DHT22;3844;53.360;9.738;2022-11-06T15:35:21;11.10;87.00
7606;DHT22;3844;53.360;9.738;2022-11-06T15:37:28;11.00;87.30
7606;DHT22;3844;53.360;9.738;2022-11-06T15:39:39;11.00;87.20
7606;DHT22;3844;53.360;9.738;2022-11-06T15:41:40;10.90;87.10
7606;DHT22;3844;53.360;9.738;2022-11-06T15:43:44;10.90;87.00
7606;DHT22;3844;53.360;9.738;2022-11-06T15:45:44;10.90;86.70
7606;DHT22;3844;53.360;9.738;2022-11-06T15:48:05;10.80;86.70
7606;DHT22;3844;53.360;9.738;2022-11-06T15:50:18;10.80;86.80
7606;DHT22;3844;53.360;9.738;2022-11-06T15:52:19;10.70;85.90
7606;DHT22;3844;53.360;9.738;2022-11-06T15:56:36;10.70;86.40
7606;DHT22;3844;53.360;9.738;2022-11-06T15:58:37;10.60;86.40
7606;DHT22;3844;53.360;9.738;2022-11-06T16:00:39;10.60;85.90
7606;DHT22;3844;53.360;9.738;2022-11-06T16:02:50;10.60;86.00
7606;DHT22;3844;53.360;9.738;2022-11-06T16:04:51;10.60;85.60
7606;DHT22;3844;53.360;9.738;2022-11-06T16:06:53;10.60;85.10
7606;DHT22;3844;53.360;9.738;2022-11-06T16:08:54;10.60;85.20
7606;DHT22;3844;53.360;9.738;2022-11-06T16:10:57;10.50;85.60
7606;DHT22;3844;53.360;9.738;2022-11-06T16:12:58;10.50;85.50
7606;DHT22;3844;53.360;9.738;2022-11-06T16:15:00;10.40;85.60
7606;DHT22;3844;53.360;9.738;2022-11-06T16:17:09;10.40;85.60
7606;DHT22;3844;53.360;9.738;2022-11-06T16:19:30;10.40;86.00
7606;DHT22;3844;53.360;9.738;2022-11-06T16:21:33;10.30;85.70
7606;DHT22;3844;53.360;9.738;2022-11-06T16:23:53;10.30;86.10
7606;DHT22;3844;53.360;9.738;2022-11-06T16:26:01;10.20;86.60
7606;DHT22;3844;53.360;9.738;2022-11-06T16:28:03;10.20;86.10
7606;DHT22;3844;53.360;9.738;2022-11-06T16:30:05;10.10;86.10
7606;DHT22;3844;53.360;9.738;2022-11-06T16:32:15;10.10;86.20
7606;DHT22;3844;53.360;9.738;2022-11-06T16:34:41;10.10;86.10
7606;DHT22;3844;53.360;9.738;2022-11-06T16:36:55;10.10;86.00
7606;DHT22;3844;53.360;9.738;2022-11-06T16:46:18;10.00;86.10
7606;DHT22;3844;53.360;9.738;2022-11-06T16:48:24;10.00;86.30
7606;DHT22;3844;53.360;9.738;2022-11-06T16:52:42;9.90;86.80
7606;DHT22;3844;53.360;9.738;2022-11-06T16:57:07;9.90;87.40
7606;DHT22;3844;53.360;9.738;2022-11-06T16:59:14;9.80;87.50
7606;DHT22;3844;53.360;9.738;2022-11-06T17:01:16;9.80;87.60
7606;DHT22;3844;53.360;9.738;2022-11-06T17:03:19;9.80;87.40
7606;DHT22;3844;53.360;9.738;2022-11-06T17:05:25;9.80;87.30
7606;DHT22;3844;53.360;9.738;2022-11-06T17:07:27;9.70;87.40
7606;DHT22;3844;53.360;9.738;2022-11-06T17:09:32;9.70;87.50
7606;DHT22;3844;53.360;9.738;2022-11-06T17:11:33;9.60;87.60
7606;DHT22;3844;53.360;9.738;2022-11-06T17:13:34;9.60;87.50
7606;DHT22;3844;53.360;9.738;2022-11-06T17:15:35;9.60;87.30
7606;DHT22;3844;53.360;9.738;2022-11-06T17:17:36;9.60;87.40